IE-0002 weather

CLOSED Reeroe Airport
Caherciveen, County Kerry, Ireland

Public forecast

Using degrees Celsius for public forecast. Weather courtesy of forecast.io.

Closest aviation weather report (METAR) to Reeroe Airport

Report is more than 6 hours old.

Closest report is Kerry Airport, 30.1 nm (55.8 km) ENE. Retrieved 2020/05/28 18:00 UTC (7 hours ago):

EIKY 281800Z 16015KT 130V190 CAVOK 21/12 Q1025

Closest aviation forecast (TAF) to Reeroe Airport

Closest forecast is Cork Airport, 64.8 nm (120.0 km) E. Retrieved 2020-05-29 00:09 UTC (40 minutes ago):

TAF EICK 282300Z 2900/2924 13013KT 9999 FEW035 PROB30 TEMPO 2910/2916 13014G25KT